createdAt,value
2022-11-09T00:02:40.315Z,990.84
2022-11-09T00:07:37.733Z,990.87
2022-11-09T00:12:36.640Z,990.85
2022-11-09T00:17:36.697Z,990.85
2022-11-09T00:22:36.560Z,990.73
2022-11-09T00:27:36.445Z,990.76
2022-11-09T00:32:36.417Z,990.75
2022-11-09T00:37:36.394Z,990.72
2022-11-09T00:42:36.322Z,990.79
2022-11-09T00:47:36.218Z,990.76
2022-11-09T00:52:36.177Z,990.81
2022-11-09T00:57:36.122Z,990.75
2022-11-09T01:02:36.046Z,990.69
2022-11-09T01:07:35.990Z,990.65
2022-11-09T01:12:36.081Z,990.71
2022-11-09T01:17:35.974Z,990.83
2022-11-09T01:22:35.975Z,990.82
2022-11-09T01:27:35.836Z,990.85
2022-11-09T01:32:35.767Z,990.86
2022-11-09T01:37:35.679Z,990.95
2022-11-09T01:42:35.626Z,990.93
2022-11-09T01:47:35.578Z,990.92
2022-11-09T01:52:35.503Z,990.99
2022-11-09T01:57:35.642Z,991.01
2022-11-09T02:02:35.414Z,991.05
2022-11-09T02:07:35.374Z,990.93
2022-11-09T02:12:35.412Z,990.85
2022-11-09T02:17:35.249Z,990.79
2022-11-09T02:22:35.196Z,990.92
2022-11-09T02:27:35.110Z,990.85
2022-11-09T02:32:35.056Z,990.90
2022-11-09T02:37:35.049Z,990.85
2022-11-09T02:42:35.017Z,990.93
2022-11-09T02:47:34.990Z,990.92
2022-11-09T02:52:34.911Z,990.83
2022-11-09T02:57:34.906Z,990.80
2022-11-09T03:02:34.746Z,990.72
2022-11-09T03:07:34.769Z,990.78
2022-11-09T03:12:34.666Z,990.93
2022-11-09T03:17:34.579Z,990.90
2022-11-09T03:22:34.545Z,990.91
2022-11-09T03:27:34.454Z,990.96
2022-11-09T03:32:34.547Z,991.00
2022-11-09T03:37:34.501Z,991.02
2022-11-09T03:42:34.316Z,991.00
2022-11-09T03:47:34.249Z,991.21
2022-11-09T03:52:34.194Z,991.23
2022-11-09T03:57:34.215Z,991.28
2022-11-09T04:02:34.146Z,991.30
2022-11-09T04:07:34.112Z,991.35
2022-11-09T04:12:33.986Z,991.31
2022-11-09T04:17:33.986Z,991.25
2022-11-09T04:22:33.877Z,991.25
2022-11-09T04:27:33.832Z,991.26
2022-11-09T04:32:33.800Z,991.21
2022-11-09T04:37:33.745Z,991.27
2022-11-09T04:42:33.713Z,991.30
2022-11-09T04:47:33.615Z,991.39
2022-11-09T04:52:33.645Z,991.47
2022-11-09T04:57:33.507Z,991.50
2022-11-09T05:02:33.541Z,991.60
2022-11-09T05:07:33.393Z,991.68
2022-11-09T05:12:33.332Z,991.72
2022-11-09T05:17:33.343Z,991.75
2022-11-09T05:22:35.243Z,991.74
2022-11-09T05:27:33.260Z,991.74
2022-11-09T05:32:33.152Z,991.72
2022-11-09T05:37:33.116Z,991.74
2022-11-09T05:42:33.050Z,991.84
2022-11-09T05:47:32.953Z,991.75
2022-11-09T05:52:32.906Z,991.69
2022-11-09T05:57:32.868Z,991.68
2022-11-09T06:02:32.860Z,991.64
2022-11-09T06:07:32.823Z,991.50
2022-11-09T06:12:32.693Z,991.64
2022-11-09T06:17:32.756Z,991.70
2022-11-09T06:22:33.604Z,991.64
2022-11-09T06:27:32.644Z,991.72
2022-11-09T06:32:32.512Z,991.81
2022-11-09T06:37:32.552Z,991.84
2022-11-09T06:42:32.510Z,991.83
2022-11-09T06:47:32.396Z,991.92
2022-11-09T06:52:32.246Z,991.86
2022-11-09T06:57:32.252Z,991.87
2022-11-09T07:02:32.239Z,991.90
2022-11-09T07:07:32.128Z,991.97
2022-11-09T07:12:32.263Z,992.07
2022-11-09T07:17:33.512Z,992.08
2022-11-09T07:22:32.181Z,992.13
2022-11-09T07:27:40.882Z,992.23
2022-11-09T07:33:06.843Z,992.21
2022-11-09T07:37:32.811Z,992.23
2022-11-09T07:42:31.710Z,992.26
2022-11-09T07:47:31.733Z,992.31
2022-11-09T07:52:31.668Z,992.38
2022-11-09T07:57:31.618Z,992.45
2022-11-09T08:02:31.522Z,992.49
2022-11-09T08:07:31.412Z,992.52
2022-11-09T08:12:36.728Z,992.50
2022-11-09T08:17:32.391Z,992.55
2022-11-09T08:22:31.229Z,992.63
2022-11-09T08:27:31.198Z,992.67
2022-11-09T08:32:31.154Z,992.74
2022-11-09T08:37:31.095Z,992.70
2022-11-09T08:42:31.096Z,992.68
2022-11-09T08:47:30.985Z,992.72
2022-11-09T08:52:30.941Z,992.71
2022-11-09T08:57:30.868Z,992.70
2022-11-09T09:02:30.816Z,992.61
2022-11-09T09:07:30.757Z,992.67
2022-11-09T09:12:30.721Z,992.66
2022-11-09T09:17:30.668Z,992.63
2022-11-09T09:22:30.681Z,992.67
2022-11-09T09:27:30.616Z,992.62
2022-11-09T09:32:30.517Z,992.51
2022-11-09T09:37:30.482Z,992.54
2022-11-09T09:42:30.401Z,992.55
2022-11-09T09:47:31.346Z,992.60
2022-11-09T09:52:30.340Z,992.63
2022-11-09T09:57:30.375Z,992.79
2022-11-09T10:02:30.221Z,992.88
2022-11-09T10:07:30.167Z,992.77
2022-11-09T10:12:30.151Z,992.85
2022-11-09T10:17:30.114Z,992.86
2022-11-09T10:22:30.108Z,992.87
2022-11-09T10:27:30.060Z,992.88
2022-11-09T10:32:29.897Z,992.84
2022-11-09T10:37:30.060Z,993.01
2022-11-09T10:42:30.870Z,992.97
2022-11-09T10:47:30.858Z,993.01
2022-11-09T10:52:29.825Z,993.00
2022-11-09T10:57:30.754Z,993.06
2022-11-09T11:02:29.830Z,993.04
2022-11-09T11:07:29.700Z,993.03
2022-11-09T11:12:29.634Z,993.09
2022-11-09T11:17:29.531Z,993.10
2022-11-09T11:22:31.496Z,993.12
2022-11-09T11:27:29.326Z,993.08
2022-11-09T11:32:29.448Z,993.08
2022-11-09T11:37:29.303Z,993.11
2022-11-09T11:42:29.165Z,993.07
2022-11-09T11:47:29.061Z,993.05
2022-11-09T11:52:29.040Z,993.02
2022-11-09T11:57:28.941Z,993.20
2022-11-09T12:02:28.927Z,993.18
2022-11-09T12:07:28.943Z,993.19
2022-11-09T12:12:28.814Z,993.27
2022-11-09T12:17:28.866Z,993.30
2022-11-09T12:22:29.683Z,993.16
2022-11-09T12:27:33.208Z,993.13
2022-11-09T12:32:28.648Z,993.13
2022-11-09T12:37:28.574Z,993.18
2022-11-09T12:42:28.534Z,993.24
2022-11-09T12:47:28.492Z,993.12
2022-11-09T12:52:28.357Z,993.25
2022-11-09T12:57:28.302Z,993.28
2022-11-09T13:02:28.217Z,993.16
2022-11-09T13:07:28.197Z,993.19
2022-11-09T13:12:28.151Z,993.40
2022-11-09T13:17:28.079Z,993.41
2022-11-09T13:22:28.075Z,993.41
2022-11-09T13:27:27.990Z,993.48
2022-11-09T13:51:42.983Z,993.50
2022-11-09T13:56:43.751Z,993.67
2022-11-09T14:01:42.548Z,993.69
2022-11-09T14:06:46.207Z,993.77
2022-11-09T14:11:42.289Z,993.83
2022-11-09T14:16:42.314Z,993.90
2022-11-09T14:21:43.110Z,994.00
2022-11-09T14:26:42.170Z,994.00
2022-11-09T14:31:45.281Z,994.05
2022-11-09T14:36:42.564Z,994.09
2022-11-09T14:41:43.425Z,994.17
2022-11-09T14:46:42.941Z,994.29
2022-11-09T14:51:48.264Z,994.28
2022-11-09T14:56:47.231Z,994.43
2022-11-09T15:01:45.062Z,994.54
2022-11-09T15:06:45.283Z,994.56
2022-11-09T15:11:42.893Z,994.58
2022-11-09T15:16:56.266Z,994.62
2022-11-09T15:21:41.685Z,994.79
2022-11-09T15:26:47.179Z,994.83
2022-11-09T15:31:41.534Z,994.80
2022-11-09T15:36:55.048Z,994.95
2022-11-09T15:41:42.398Z,995.00
2022-11-09T15:46:41.900Z,995.04
2022-11-09T15:51:41.248Z,995.11
2022-11-09T17:18:01.466Z,996.28
2022-11-09T17:23:01.398Z,996.36
2022-11-09T17:28:01.398Z,996.41
2022-11-09T17:33:01.346Z,996.48
2022-11-09T17:38:01.113Z,996.56
2022-11-09T17:43:01.089Z,996.64
2022-11-09T17:48:01.409Z,996.69
2022-11-09T17:53:01.011Z,996.76
2022-11-09T17:58:00.884Z,996.79
2022-11-09T18:03:01.054Z,996.86
2022-11-09T18:08:00.831Z,996.91
2022-11-09T18:13:00.820Z,997.03
2022-11-09T18:18:00.698Z,997.09
2022-11-09T18:23:00.661Z,997.24
2022-11-09T18:28:01.286Z,997.27
2022-11-09T18:33:00.756Z,997.43
2022-11-09T18:38:00.548Z,997.49
2022-11-09T18:43:00.436Z,997.54
2022-11-09T18:48:00.516Z,997.60
2022-11-09T18:53:00.391Z,997.75
2022-11-09T18:58:00.436Z,997.76
2022-11-09T19:03:00.295Z,997.93
2022-11-09T19:08:00.167Z,997.93
2022-11-09T19:13:00.296Z,997.94
2022-11-09T19:18:00.212Z,997.97
2022-11-09T19:22:59.959Z,998.06
2022-11-09T19:27:59.910Z,998.17
2022-11-09T19:34:34.114Z,998.24
2022-11-09T19:39:36.138Z,998.32
2022-11-09T19:44:35.002Z,998.38
2022-11-09T19:49:33.936Z,998.42
2022-11-09T19:54:33.890Z,998.49
2022-11-09T19:59:33.906Z,998.49
2022-11-09T20:04:33.857Z,998.61
2022-11-09T20:09:33.812Z,998.72
2022-11-09T20:14:33.754Z,998.77
2022-11-09T20:19:33.789Z,998.84
2022-11-09T20:24:33.545Z,999.00
2022-11-09T20:29:33.501Z,999.09
2022-11-09T20:34:33.443Z,999.24
2022-11-09T20:39:33.418Z,999.27
2022-11-09T20:44:33.393Z,999.33
2022-11-09T20:49:33.346Z,999.33
2022-11-09T20:54:33.260Z,999.42
2022-11-09T20:59:33.197Z,999.50
2022-11-09T21:04:33.099Z,999.55
2022-11-09T21:09:33.051Z,999.65
2022-11-09T21:14:33.213Z,999.75
2022-11-09T21:19:32.942Z,999.82
2022-11-09T21:24:32.971Z,999.84
2022-11-09T21:29:32.922Z,999.82
2022-11-09T21:34:36.481Z,999.93
2022-11-09T21:39:32.728Z,999.97
2022-11-09T21:44:32.689Z,999.95
2022-11-09T21:49:32.667Z,1000.00
2022-11-09T21:54:32.657Z,1000.07
2022-11-09T21:59:32.485Z,1000.04
2022-11-09T22:04:32.462Z,1000.10
2022-11-09T22:09:50.588Z,1000.10
2022-11-09T22:14:33.325Z,1000.18
2022-11-09T22:19:32.283Z,1000.20
2022-11-09T22:24:32.235Z,1000.20
2022-11-09T22:29:32.178Z,1000.16
2022-11-09T22:34:32.152Z,1000.20
2022-11-09T22:39:32.205Z,1000.15
2022-11-09T22:44:32.127Z,1000.35
2022-11-09T22:49:31.947Z,1000.36
2022-11-09T22:54:31.923Z,1000.41
2022-11-09T22:59:32.178Z,1000.55
2022-11-09T23:04:31.785Z,1000.63
2022-11-09T23:09:31.704Z,1000.63
2022-11-09T23:14:31.762Z,1000.68
2022-11-09T23:19:31.710Z,1000.79
2022-11-09T23:24:31.668Z,1000.89
2022-11-09T23:29:31.616Z,1000.87
2022-11-09T23:34:31.527Z,1000.95
2022-11-09T23:39:31.387Z,1001.01
2022-11-09T23:44:31.350Z,1001.07
2022-11-09T23:49:31.311Z,1001.22
2022-11-09T23:54:31.217Z,1001.35
2022-11-09T23:59:32.295Z,1001.43
